Time;durP1;ratioP1;P1;durP2;ratioP2;P2;SDS_P1;SDS_P2;PMS_P1;PMS_P2;Temp;Humidity;BMP_temperature;BMP_pressure;BME280_temperature;BME280_humidity;BME280_pressure;Samples;Min_cycle;Max_cycle;Signal;HPM_P1;HPM_P2
2020/12/07 00:01:48;;;;;;;3.30;3.00;;;4.80;99.90;;;;;;5069200;28;20210;-58
2020/12/07 00:04:13;;;;;;;3.38;3.08;;;4.90;99.90;;;;;;5070060;28;20250;-58
2020/12/07 00:06:39;;;;;;;3.40;3.10;;;4.80;99.90;;;;;;5069314;28;20234;-58
2020/12/07 00:09:05;;;;;;;5.63;3.67;;;5.00;99.90;;;;;;5069251;28;20190;-58
2020/12/07 00:11:31;;;;;;;2.63;2.53;;;4.90;99.90;;;;;;5069605;28;20236;-58
2020/12/07 00:13:57;;;;;;;4.00;3.22;;;5.00;99.90;;;;;;5072580;28;20193;-58
2020/12/07 00:16:23;;;;;;;3.67;3.33;;;5.10;99.90;;;;;;5069082;28;20201;-58
2020/12/07 00:18:49;;;;;;;3.00;2.70;;;4.80;99.90;;;;;;5068617;28;20491;-58
2020/12/07 00:21:14;;;;;;;3.93;3.53;;;5.10;99.90;;;;;;5069185;28;20185;-58
2020/12/07 00:23:40;;;;;;;3.00;2.80;;;5.10;99.90;;;;;;5068677;28;20194;-59
2020/12/07 00:26:10;;;;;;;4.07;3.17;;;4.90;99.90;;;;;;5068619;28;20256;-59
2020/12/07 00:28:39;;;;;;;4.40;3.63;;;4.80;99.90;;;;;;5068449;28;20264;-58
2020/12/07 00:31:06;;;;;;;3.47;3.17;;;4.70;99.90;;;;;;5068692;28;20232;-59
2020/12/07 00:33:32;;;;;;;3.85;3.50;;;4.80;99.90;;;;;;5071884;28;20185;-59
2020/12/07 00:35:58;;;;;;;3.20;2.90;;;4.60;99.90;;;;;;5068379;28;20200;-58
2020/12/07 00:38:24;;;;;;;3.50;3.20;;;4.80;99.90;;;;;;5068633;28;20634;-59
2020/12/07 00:40:50;;;;;;;3.17;2.90;;;5.00;99.90;;;;;;5068592;28;20440;-59
2020/12/07 00:43:16;;;;;;;3.08;2.35;;;5.10;99.90;;;;;;5067491;28;20191;-58
2020/12/07 00:45:42;;;;;;;3.40;3.15;;;5.20;99.90;;;;;;5067662;28;20229;-58
2020/12/07 00:48:08;;;;;;;3.67;2.90;;;5.20;99.90;;;;;;5083110;28;20213;-59
2020/12/07 00:50:33;;;;;;;4.77;2.70;;;5.00;99.90;;;;;;5068680;28;20298;-58
2020/12/07 00:52:59;;;;;;;2.93;2.73;;;5.20;99.90;;;;;;5067861;28;20308;-58
2020/12/07 00:55:24;;;;;;;2.97;2.67;;;5.20;99.90;;;;;;5067648;28;20213;-59
2020/12/07 00:57:50;;;;;;;2.93;2.70;;;5.10;99.90;;;;;;5064102;28;20177;-58
2020/12/07 01:00:16;;;;;;;3.50;3.20;;;5.20;99.90;;;;;;5068276;28;20182;-58
2020/12/07 01:02:41;;;;;;;3.30;2.67;;;4.80;99.90;;;;;;5067581;28;20650;-58
2020/12/07 01:05:07;;;;;;;3.37;2.87;;;5.00;99.90;;;;;;5056219;28;20206;-58
2020/12/07 01:07:32;;;;;;;3.30;2.90;;;4.80;99.90;;;;;;5068703;28;20197;-58
2020/12/07 01:09:58;;;;;;;3.30;3.00;;;4.80;99.90;;;;;;5067254;28;20188;-59
2020/12/07 01:12:24;;;;;;;3.10;2.73;;;5.10;99.90;;;;;;5068172;28;20597;-59
2020/12/07 01:14:51;;;;;;;2.80;2.57;;;4.70;99.90;;;;;;5067747;28;20593;-59
2020/12/07 01:17:20;;;;;;;4.38;3.28;;;4.70;99.90;;;;;;5068592;28;20186;-59
2020/12/07 01:19:45;;;;;;;2.90;2.70;;;5.10;99.90;;;;;;5064528;28;20190;-59
2020/12/07 01:22:12;;;;;;;2.77;2.57;;;4.80;99.90;;;;;;5068428;28;20196;-59
2020/12/07 01:24:37;;;;;;;2.90;2.70;;;4.90;99.90;;;;;;5067399;28;20571;-59
2020/12/07 01:27:03;;;;;;;2.93;2.70;;;5.10;99.90;;;;;;5067218;28;20231;-58
2020/12/07 01:29:29;;;;;;;3.80;3.20;;;4.80;99.90;;;;;;5069950;28;20553;-58
2020/12/07 01:31:55;;;;;;;3.70;3.37;;;4.80;99.90;;;;;;5077081;28;20567;-58
2020/12/07 01:34:20;;;;;;;3.10;2.83;;;4.90;99.90;;;;;;5067602;28;20193;-58
2020/12/07 01:36:46;;;;;;;3.80;2.80;;;5.00;99.90;;;;;;5067704;28;20797;-59
2020/12/07 01:39:11;;;;;;;3.03;2.80;;;4.80;99.90;;;;;;5067454;28;20214;-58
2020/12/07 01:41:37;;;;;;;3.43;3.13;;;4.70;99.90;;;;;;5067474;28;20647;-58
2020/12/07 01:44:03;;;;;;;2.83;2.60;;;4.80;99.90;;;;;;5066329;28;20189;-59
2020/12/07 01:46:29;;;;;;;3.30;2.97;;;4.70;99.90;;;;;;5066854;28;20202;-58
2020/12/07 01:48:55;;;;;;;2.85;2.65;;;4.80;99.90;;;;;;5069497;28;20442;-59
2020/12/07 01:51:22;;;;;;;3.70;3.40;;;4.80;99.90;;;;;;5077192;28;20569;-58
2020/12/07 01:53:48;;;;;;;3.38;3.08;;;5.00;99.90;;;;;;5071157;28;20186;-58
2020/12/07 01:56:42;;;;;;;4.05;3.75;;;4.80;99.90;;;;;;5074348;28;20698;-58
2020/12/07 01:59:08;;;;;;;4.05;3.58;;;4.30;99.90;;;;;;5071056;28;20250;-58
2020/12/07 02:01:36;;;;;;;3.50;3.20;;;4.80;99.90;;;;;;5074236;28;20189;-58
2020/12/07 02:04:02;;;;;;;3.50;3.20;;;4.80;99.90;;;;;;5082941;28;20265;-58
2020/12/07 02:06:28;;;;;;;4.00;3.60;;;4.90;99.90;;;;;;5075460;28;20212;-58
2020/12/07 02:08:53;;;;;;;3.70;3.40;;;4.70;99.90;;;;;;5073811;28;20196;-58
2020/12/07 02:11:19;;;;;;;3.67;3.37;;;4.60;99.90;;;;;;5073685;28;20227;-58
2020/12/07 02:13:45;;;;;;;3.70;3.30;;;4.80;99.90;;;;;;5074190;28;20676;-58
2020/12/07 02:16:11;;;;;;;3.47;3.17;;;5.00;99.90;;;;;;5072864;28;20209;-57
2020/12/07 02:18:37;;;;;;;6.17;3.17;;;4.70;99.90;;;;;;5073580;28;20264;-57
2020/12/07 02:21:02;;;;;;;4.30;3.90;;;4.70;99.90;;;;;;5074081;28;20221;-58
2020/12/07 02:23:28;;;;;;;3.83;3.17;;;4.60;99.90;;;;;;5082800;28;20448;-58
2020/12/07 02:25:54;;;;;;;4.00;3.60;;;5.20;99.90;;;;;;5073122;28;20249;-58
2020/12/07 02:28:19;;;;;;;3.87;3.57;;;4.70;99.90;;;;;;5066338;28;20193;-58
2020/12/07 02:30:45;;;;;;;3.60;3.30;;;4.10;99.90;;;;;;5073965;28;20186;-59
2020/12/07 02:33:10;;;;;;;3.07;2.77;;;4.50;99.90;;;;;;5077121;28;20274;-58
2020/12/07 02:35:36;;;;;;;3.47;3.17;;;4.70;99.90;;;;;;5081959;28;20205;-58
2020/12/07 02:38:02;;;;;;;3.67;3.27;;;4.90;99.90;;;;;;5073729;28;20186;-58
2020/12/07 02:40:27;;;;;;;3.17;2.87;;;4.80;99.90;;;;;;5073415;28;20185;-59
2020/12/07 02:42:53;;;;;;;4.90;3.60;;;4.90;99.90;;;;;;5073415;28;20189;-58
2020/12/07 02:45:19;;;;;;;3.30;3.00;;;4.80;99.90;;;;;;5073028;28;20296;-58
2020/12/07 02:47:45;;;;;;;3.27;2.97;;;4.90;99.90;;;;;;5072795;28;20255;-57
2020/12/07 02:50:12;;;;;;;3.07;2.77;;;4.90;99.90;;;;;;5073581;28;20193;-58
2020/12/07 02:52:38;;;;;;;3.92;3.03;;;4.80;99.90;;;;;;5074568;28;20979;-57
2020/12/07 02:55:09;;;;;;;3.67;3.38;;;4.80;99.90;;;;;;5070330;28;20255;-58
2020/12/07 02:57:35;;;;;;;4.13;3.28;;;4.50;99.90;;;;;;5071224;28;20761;-59
2020/12/07 03:00:02;;;;;;;3.13;2.90;;;4.70;99.90;;;;;;5078978;28;20201;-59
2020/12/07 03:02:28;;;;;;;3.20;2.90;;;4.60;99.90;;;;;;5073484;28;20484;-60
2020/12/07 03:04:54;;;;;;;3.33;3.03;;;4.80;99.90;;;;;;5070715;28;20721;-59
2020/12/07 03:07:19;;;;;;;3.20;2.90;;;4.60;99.90;;;;;;5070106;28;20189;-59
2020/12/07 03:09:45;;;;;;;3.80;2.93;;;4.60;99.90;;;;;;5070108;28;20181;-58
2020/12/07 03:12:11;;;;;;;3.30;3.00;;;4.60;99.90;;;;;;5070307;28;20258;-59
2020/12/07 03:14:37;;;;;;;3.03;2.83;;;4.60;99.90;;;;;;5077183;28;20220;-59
2020/12/07 03:17:03;;;;;;;3.40;3.10;;;4.70;99.90;;;;;;5071296;28;20654;-59
2020/12/07 03:19:28;;;;;;;3.20;2.90;;;4.70;99.90;;;;;;5070562;28;20844;-59
2020/12/07 03:21:54;;;;;;;3.00;2.60;;;4.70;99.90;;;;;;5070083;28;20175;-59
2020/12/07 03:24:20;;;;;;;3.93;3.53;;;4.60;99.90;;;;;;5069769;28;20280;-58
2020/12/07 03:26:46;;;;;;;3.58;3.28;;;4.60;99.90;;;;;;5069703;28;20193;-58
2020/12/07 03:29:12;;;;;;;2.70;2.50;;;4.60;99.90;;;;;;5074685;28;20515;-59
2020/12/07 03:31:39;;;;;;;3.37;2.90;;;4.60;99.90;;;;;;5069675;28;20463;-59
2020/12/07 03:34:06;;;;;;;2.70;2.50;;;4.60;99.90;;;;;;5069837;28;20247;-59
2020/12/07 03:36:33;;;;;;;3.50;3.20;;;4.50;99.90;;;;;;5069825;28;20182;-59
2020/12/07 03:38:58;;;;;;;3.03;2.70;;;4.70;99.90;;;;;;5069805;28;20185;-59
2020/12/07 03:41:24;;;;;;;3.37;3.07;;;4.60;99.90;;;;;;5072477;28;20855;-59
2020/12/07 03:43:49;;;;;;;2.73;2.53;;;4.10;99.90;;;;;;5075216;28;20730;-59
2020/12/07 03:46:15;;;;;;;2.70;2.50;;;4.60;99.90;;;;;;5072970;28;20201;-58
2020/12/07 03:48:41;;;;;;;3.27;3.03;;;4.50;99.90;;;;;;5069918;28;20723;-59
2020/12/07 03:51:07;;;;;;;3.07;2.87;;;4.60;99.90;;;;;;5068699;28;20212;-59
2020/12/07 03:53:35;;;;;;;3.30;3.00;;;4.50;99.90;;;;;;5069597;28;20439;-59
2020/12/07 03:56:02;;;;;;;4.13;3.17;;;4.40;99.90;;;;;;5076837;28;20265;-59
2020/12/07 03:58:28;;;;;;;3.63;3.33;;;4.60;99.90;;;;;;5075171;28;20263;-58
2020/12/07 04:00:55;;;;;;;3.25;2.63;;;4.50;99.90;;;;;;5075129;28;20201;-59
2020/12/07 04:03:21;;;;;;;4.43;3.15;;;4.50;99.90;;;;;;5068879;28;20181;-59
2020/12/07 04:05:53;;;;;;;3.70;3.40;;;4.50;99.90;;;;;;5068951;28;20259;-59
2020/12/07 04:08:19;;;;;;;4.10;3.55;;;4.90;99.90;;;;;;5069266;28;20269;-59
2020/12/07 04:10:44;;;;;;;3.23;2.90;;;4.70;99.90;;;;;;5064743;28;20612;-58
2020/12/07 04:13:11;;;;;;;3.07;2.70;;;4.70;99.90;;;;;;5069202;28;20197;-59
2020/12/07 04:15:36;;;;;;;3.25;2.90;;;4.40;99.90;;;;;;5069416;28;20213;-59
2020/12/07 04:18:02;;;;;;;3.43;3.10;;;4.60;99.90;;;;;;5068598;28;20234;-59
2020/12/07 04:20:27;;;;;;;3.07;2.87;;;4.80;99.90;;;;;;5070821;28;20662;-59
2020/12/07 04:22:53;;;;;;;3.47;2.90;;;4.70;99.90;;;;;;5068625;28;20177;-59
2020/12/07 04:25:19;;;;;;;3.10;2.90;;;4.50;99.90;;;;;;5068628;28;20295;-59
2020/12/07 04:27:44;;;;;;;3.40;3.10;;;4.80;99.90;;;;;;5070223;28;20187;-58
2020/12/07 04:30:10;;;;;;;3.47;3.10;;;4.70;99.90;;;;;;5068370;28;20232;-58
2020/12/07 04:32:36;;;;;;;2.60;2.40;;;4.70;99.90;;;;;;5068457;28;20206;-59
2020/12/07 04:35:05;;;;;;;3.67;3.38;;;4.90;99.90;;;;;;5068879;28;20307;-59
2020/12/07 04:37:30;;;;;;;3.15;2.85;;;4.90;99.90;;;;;;5068562;28;20177;-59
2020/12/07 04:39:56;;;;;;;3.37;3.07;;;4.90;99.90;;;;;;5068591;28;20182;-59
2020/12/07 04:42:22;;;;;;;3.40;3.10;;;4.80;99.90;;;;;;5069644;28;20194;-59
2020/12/07 04:44:47;;;;;;;3.80;3.33;;;5.10;99.90;;;;;;5068665;28;20205;-59
2020/12/07 04:47:17;;;;;;;5.03;4.30;;;5.10;99.90;;;;;;5068474;28;21241;-59
2020/12/07 04:49:44;;;;;;;4.80;2.83;;;5.20;99.90;;;;;;5068737;28;20271;-59
2020/12/07 04:52:10;;;;;;;3.40;3.10;;;5.10;99.90;;;;;;5068103;28;20205;-59
2020/12/07 04:54:41;;;;;;;4.10;3.30;;;5.00;99.90;;;;;;5068431;28;20211;-59
2020/12/07 04:57:07;;;;;;;3.10;2.80;;;4.80;99.90;;;;;;5068384;28;20199;-59
2020/12/07 04:59:34;;;;;;;3.50;3.30;;;4.90;99.90;;;;;;5067888;28;20196;-59
2020/12/07 05:02:00;;;;;;;3.10;2.75;;;4.90;99.90;;;;;;5068367;28;20629;-59
2020/12/07 05:04:26;;;;;;;3.40;2.97;;;4.90;99.90;;;;;;5069518;28;20244;-59
2020/12/07 05:07:00;;;;;;;4.07;2.93;;;5.20;99.90;;;;;;5067452;28;20209;-59
2020/12/07 05:09:27;;;;;;;3.78;3.38;;;5.00;99.90;;;;;;5072526;28;20292;-59
2020/12/07 05:11:55;;;;;;;4.65;3.65;;;4.80;99.90;;;;;;5067815;28;20576;-59
2020/12/07 05:14:21;;;;;;;4.20;3.80;;;5.00;99.90;;;;;;5068157;28;20191;-59
2020/12/07 05:16:48;;;;;;;4.82;4.43;;;5.10;99.90;;;;;;5067815;28;20272;-59
2020/12/07 05:19:14;;;;;;;5.72;4.10;;;4.90;99.90;;;;;;5067873;28;20646;-58
2020/12/07 05:21:41;;;;;;;4.00;3.70;;;4.50;99.90;;;;;;5064582;28;20247;-59
2020/12/07 05:24:06;;;;;;;4.20;3.75;;;4.50;99.90;;;;;;5067740;28;20226;-59
2020/12/07 05:26:36;;;;;;;4.60;4.20;;;4.40;99.90;;;;;;5067114;28;20190;-59
2020/12/07 05:29:12;;;;;;;6.45;4.20;;;5.00;99.90;;;;;;5066892;28;20608;-59
2020/12/07 05:31:38;;;;;;;4.25;3.50;;;4.90;99.90;;;;;;5065991;28;20270;-59
2020/12/07 05:34:05;;;;;;;4.88;4.32;;;5.10;99.90;;;;;;5067659;28;20601;-59
2020/12/07 05:36:31;;;;;;;4.47;3.95;;;5.20;99.90;;;;;;5067563;28;20289;-59
2020/12/07 05:38:57;;;;;;;8.45;4.65;;;5.20;99.90;;;;;;5068119;28;20197;-60
2020/12/07 05:41:24;;;;;;;5.00;4.10;;;5.00;99.90;;;;;;5056737;28;20199;-60
2020/12/07 05:43:53;;;;;;;3.70;3.40;;;5.00;99.90;;;;;;5066763;28;20990;-59
2020/12/07 05:46:23;;;;;;;6.90;3.75;;;5.00;99.90;;;;;;5076528;28;20687;-59
2020/12/07 05:48:50;;;;;;;4.60;4.18;;;5.00;99.90;;;;;;5067504;28;20635;-59
2020/12/07 05:51:19;;;;;;;6.85;4.88;;;4.80;99.90;;;;;;5067579;28;20202;-59
2020/12/07 05:53:45;;;;;;;4.55;4.15;;;4.40;99.90;;;;;;5067351;28;20183;-59
2020/12/07 05:56:11;;;;;;;8.13;4.35;;;4.30;99.90;;;;;;5066758;28;20208;-59
2020/12/07 05:58:55;;;;;;;5.20;4.67;;;4.70;99.90;;;;;;5067125;28;20186;-57
2020/12/07 06:01:25;;;;;;;6.05;4.35;;;4.90;99.90;;;;;;5080387;28;20225;-59
2020/12/07 06:03:55;;;;;;;5.18;4.68;;;4.90;99.90;;;;;;5064302;28;20229;-59
2020/12/07 06:06:31;;;;;;;4.97;4.15;;;4.80;99.90;;;;;;5065846;28;20205;-59
2020/12/07 06:09:01;;;;;;;6.65;4.88;;;4.70;99.90;;;;;;5059819;28;20271;-56
2020/12/07 06:11:29;;;;;;;6.25;4.90;;;4.80;99.90;;;;;;5077225;28;20205;-55
2020/12/07 06:13:56;;;;;;;4.82;4.35;;;4.70;99.90;;;;;;5071902;28;20551;-57
2020/12/07 06:16:26;;;;;;;5.18;4.70;;;4.60;99.90;;;;;;5070048;28;20208;-55
2020/12/07 06:18:56;;;;;;;4.47;4.07;;;4.60;99.90;;;;;;5067138;28;20181;-57
2020/12/07 06:21:23;;;;;;;4.78;4.35;;;4.70;99.90;;;;;;5065653;28;20182;-56
2020/12/07 06:23:49;;;;;;;8.05;5.90;;;4.30;99.90;;;;;;5062963;28;20181;-56
2020/12/07 06:26:17;;;;;;;5.43;4.90;;;4.80;99.90;;;;;;5067673;28;20763;-56
2020/12/07 06:28:44;;;;;;;6.22;5.20;;;4.70;99.90;;;;;;5068109;28;20440;-54
2020/12/07 06:31:18;;;;;;;6.25;4.97;;;4.80;99.90;;;;;;5077311;28;20216;-55
2020/12/07 06:33:48;;;;;;;7.10;5.40;;;4.40;99.90;;;;;;5065209;28;20279;-58
2020/12/07 06:36:30;;;;;;;5.53;4.80;;;4.50;99.90;;;;;;5066409;28;20733;-59
2020/12/07 06:39:00;;;;;;;5.70;5.20;;;4.50;99.90;;;;;;5064553;28;20181;-58
2020/12/07 06:41:32;;;;;;;5.93;4.95;;;4.30;99.90;;;;;;5068144;28;20182;-61
2020/12/07 06:44:00;;;;;;;12.85;8.65;;;4.20;99.90;;;;;;5067455;28;20173;-59
2020/12/07 06:47:05;;;;;;;9.90;6.13;;;4.40;99.90;;;;;;5065993;28;20225;-59
2020/12/07 06:52:28;;;;;;;5.25;4.75;;;4.50;99.90;;;;;;5066420;28;20205;-58
2020/12/07 06:55:16;;;;;;;6.38;5.70;;;4.60;99.90;;;;;;5075790;28;20200;-61
2020/12/07 06:57:47;;;;;;;6.85;5.70;;;4.70;99.90;;;;;;5071045;28;22258;-58
2020/12/07 07:00:18;;;;;;;7.97;5.30;;;4.70;99.90;;;;;;5069230;28;20197;-58
2020/12/07 07:02:49;;;;;;;8.80;6.55;;;4.10;99.90;;;;;;5069234;28;20221;-59
2020/12/07 07:05:19;;;;;;;8.00;6.88;;;4.60;99.90;;;;;;5069029;28;20207;-58
2020/12/07 07:07:46;;;;;;;6.88;6.18;;;4.60;99.90;;;;;;5068778;28;20648;-58
2020/12/07 07:10:13;;;;;;;7.70;5.93;;;4.70;99.90;;;;;;5068451;28;20654;-59
2020/12/07 07:12:40;;;;;;;6.15;5.05;;;4.70;99.90;;;;;;5069398;28;20295;-59
2020/12/07 07:15:07;;;;;;;7.10;5.72;;;4.70;99.90;;;;;;5068015;28;20224;-59
2020/12/07 07:17:34;;;;;;;6.32;5.72;;;4.90;99.90;;;;;;5063576;28;20178;-58
2020/12/07 07:20:06;;;;;;;6.22;4.93;;;5.00;99.90;;;;;;5064390;28;20208;-58
2020/12/07 07:22:33;;;;;;;5.93;5.20;;;5.20;99.90;;;;;;5080872;28;20185;-57
2020/12/07 07:30:33;;;;;;;6.50;5.80;;;5.10;99.90;;;;;;5059304;28;20188;-57
2020/12/07 07:32:59;;;;;;;10.30;6.97;;;5.20;99.90;;;;;;5040582;28;20295;-59
2020/12/07 07:35:28;;;;;;;7.32;6.45;;;5.00;99.90;;;;;;5051538;28;20214;-59
2020/12/07 07:37:54;;;;;;;7.55;6.13;;;4.80;99.90;;;;;;5069566;28;20258;-60
2020/12/07 07:40:24;;;;;;;6.68;6.07;;;4.80;99.90;;;;;;5085014;28;20589;-59
2020/12/07 07:43:01;;;;;;;6.88;6.20;;;5.10;99.90;;;;;;5094593;28;20921;-58
2020/12/07 07:45:35;;;;;;;6.05;5.45;;;5.10;99.90;;;;;;5067464;28;20313;-58
2020/12/07 08:02:00;;;;;;;7.72;6.93;;;5.60;99.90;;;;;;5075487;28;20185;-60
2020/12/07 08:18:00;;;;;;;7.05;6.35;;;6.10;99.90;;;;;;5071316;28;20188;-59
2020/12/07 08:20:29;;;;;;;9.82;7.60;;;6.00;99.90;;;;;;5065908;28;20231;-59
2020/12/07 08:22:56;;;;;;;6.60;5.88;;;5.50;99.90;;;;;;5063657;28;21804;-59
2020/12/07 08:25:49;;;;;;;7.30;6.57;;;6.20;99.90;;;;;;5076239;28;20300;-59
2020/12/07 08:28:37;;;;;;;9.55;6.82;;;5.80;99.90;;;;;;5059306;28;20283;-59
2020/12/07 08:31:18;;;;;;;7.00;5.63;;;6.00;99.90;;;;;;5067598;28;20847;-59
2020/12/07 08:34:08;;;;;;;5.60;5.10;;;6.10;99.90;;;;;;5059137;28;20195;-59
2020/12/07 08:36:34;;;;;;;4.90;4.50;;;5.90;99.90;;;;;;5061182;28;20268;-60
2020/12/07 08:39:00;;;;;;;5.15;4.43;;;6.00;99.90;;;;;;5070484;28;20248;-58
2020/12/07 08:41:29;;;;;;;6.33;5.00;;;6.00;99.90;;;;;;5079056;28;20196;-58
2020/12/07 08:43:56;;;;;;;4.40;3.97;;;6.10;99.90;;;;;;5068710;28;20211;-57
2020/12/07 08:46:28;;;;;;;5.10;4.60;;;6.00;99.90;;;;;;5066844;28;20253;-57
2020/12/07 08:48:57;;;;;;;5.10;3.88;;;5.20;99.90;;;;;;5057846;28;20600;-58
2020/12/07 08:51:30;;;;;;;5.28;4.82;;;5.70;99.90;;;;;;5067908;28;20215;-58
2020/12/07 08:53:55;;;;;;;6.13;4.55;;;6.00;99.90;;;;;;5065090;28;20275;-57
2020/12/07 08:56:21;;;;;;;5.80;4.37;;;5.20;99.90;;;;;;5070212;28;20636;-60
2020/12/07 08:58:47;;;;;;;5.25;4.75;;;5.90;99.90;;;;;;5070961;28;20174;-59
2020/12/07 09:01:13;;;;;;;7.37;4.23;;;5.90;99.90;;;;;;5067778;28;20713;-59
2020/12/07 09:03:41;;;;;;;4.90;4.47;;;6.20;99.90;;;;;;5066179;28;20178;-59
2020/12/07 09:06:08;;;;;;;4.80;4.30;;;5.60;99.90;;;;;;5067484;28;20489;-60
2020/12/07 09:08:34;;;;;;;5.07;4.28;;;6.00;99.90;;;;;;5072576;28;20568;-58
2020/12/07 09:11:03;;;;;;;4.63;4.22;;;6.10;99.90;;;;;;5062374;28;20191;-58
2020/12/07 09:13:29;;;;;;;5.93;4.38;;;6.00;99.90;;;;;;5068435;28;20181;-60
2020/12/07 09:15:58;;;;;;;5.80;4.93;;;6.20;99.90;;;;;;5064177;28;20204;-59
2020/12/07 09:18:23;;;;;;;4.88;3.88;;;6.70;99.90;;;;;;5064760;28;20177;-58
2020/12/07 09:20:49;;;;;;;3.77;3.50;;;6.50;99.90;;;;;;5072609;28;20636;-60
2020/12/07 09:23:16;;;;;;;4.07;3.70;;;6.80;99.90;;;;;;5065366;28;20178;-59
2020/12/07 09:25:41;;;;;;;4.45;4.00;;;6.70;99.90;;;;;;5066340;28;20256;-61
2020/12/07 09:28:07;;;;;;;4.90;4.40;;;6.40;99.90;;;;;;5063564;28;20197;-61
2020/12/07 09:30:33;;;;;;;5.20;4.00;;;6.50;99.90;;;;;;5079851;28;20189;-61
2020/12/07 09:32:59;;;;;;;5.57;4.50;;;7.00;99.90;;;;;;5065458;28;20462;-60
2020/12/07 09:35:24;;;;;;;4.20;3.77;;;7.40;99.90;;;;;;5061324;28;20207;-59
2020/12/07 09:37:50;;;;;;;5.07;4.37;;;7.30;99.90;;;;;;5066546;28;20227;-59
2020/12/07 09:40:16;;;;;;;4.00;3.70;;;7.60;99.90;;;;;;5083152;28;20450;-60
2020/12/07 09:42:42;;;;;;;4.80;4.00;;;7.50;99.90;;;;;;5066627;28;20739;-60
2020/12/07 09:45:08;;;;;;;4.80;3.40;;;7.50;99.90;;;;;;5064892;28;20978;-58
2020/12/07 09:47:34;;;;;;;4.63;4.18;;;7.40;99.90;;;;;;5062890;28;20641;-60
2020/12/07 09:50:01;;;;;;;5.27;4.77;;;7.50;99.90;;;;;;5064637;28;20210;-60
2020/12/07 09:52:27;;;;;;;4.43;3.50;;;7.70;99.90;;;;;;5067092;28;21022;-60
2020/12/07 09:54:53;;;;;;;5.53;3.70;;;7.70;99.90;;;;;;5064232;28;20204;-61
2020/12/07 09:57:18;;;;;;;3.60;3.30;;;8.10;99.90;;;;;;5065258;28;20192;-60
2020/12/07 09:59:47;;;;;;;11.43;9.00;;;8.20;99.90;;;;;;5067107;28;20185;-59
2020/12/07 10:02:13;;;;;;;5.68;4.57;;;8.30;99.90;;;;;;5064082;28;20195;-58
2020/12/07 10:04:39;;;;;;;4.13;3.40;;;8.60;99.90;;;;;;5066837;28;20212;-60
2020/12/07 10:07:04;;;;;;;4.17;3.77;;;8.50;99.90;;;;;;5066612;28;20196;-59
2020/12/07 10:09:30;;;;;;;5.03;3.20;;;8.90;99.90;;;;;;5062539;28;20657;-60
2020/12/07 10:11:55;;;;;;;4.00;3.70;;;8.90;99.90;;;;;;5065444;28;20243;-59
2020/12/07 10:14:21;;;;;;;4.07;3.77;;;9.10;99.90;;;;;;5065805;28;20874;-60
2020/12/07 10:16:47;;;;;;;4.30;3.90;;;9.00;99.40;;;;;;5068360;28;20178;-60
2020/12/07 10:19:13;;;;;;;3.60;3.30;;;9.10;99.80;;;;;;5077588;28;20662;-61
2020/12/07 10:21:40;;;;;;;4.40;4.00;;;9.30;99.80;;;;;;5065537;28;20640;-60
2020/12/07 10:24:06;;;;;;;3.13;2.83;;;9.20;99.50;;;;;;5070634;28;20222;-59
2020/12/07 10:26:32;;;;;;;3.50;3.20;;;9.60;99.60;;;;;;5070915;28;20189;-59
2020/12/07 10:28:58;;;;;;;3.40;3.05;;;9.20;99.40;;;;;;5064889;28;20241;-60
2020/12/07 10:31:24;;;;;;;2.93;2.67;;;9.30;99.00;;;;;;5066876;28;20231;-59
2020/12/07 10:33:51;;;;;;;3.50;2.60;;;9.50;97.90;;;;;;5070949;28;20443;-59
2020/12/07 10:36:17;;;;;;;4.32;3.22;;;10.00;96.10;;;;;;5068515;28;20459;-59
2020/12/07 10:38:44;;;;;;;3.65;2.92;;;10.40;96.10;;;;;;5077914;28;20177;-59
2020/12/07 10:41:10;;;;;;;8.15;4.20;;;11.30;94.60;;;;;;5070116;28;20226;-59
2020/12/07 10:43:36;;;;;;;3.60;3.30;;;11.70;93.90;;;;;;5070159;28;20656;-60
2020/12/07 10:46:01;;;;;;;2.97;2.77;;;12.60;93.20;;;;;;5081979;28;20281;-60
2020/12/07 10:48:30;;;;;;;2.80;2.60;;;13.20;90.20;;;;;;5068431;28;20850;-59
2020/12/07 10:50:56;;;;;;;3.92;3.38;;;13.30;87.10;;;;;;5063808;28;20177;-61
2020/12/07 10:53:23;;;;;;;2.70;2.50;;;12.90;89.30;;;;;;5067651;28;20568;-60
2020/12/07 10:55:48;;;;;;;4.13;3.15;;;12.60;88.40;;;;;;5070078;28;20300;-60
2020/12/07 10:58:14;;;;;;;3.27;2.97;;;12.10;89.70;;;;;;5068938;28;21051;-59
2020/12/07 11:00:40;;;;;;;4.07;3.23;;;11.20;90.80;;;;;;5069690;28;20269;-59
2020/12/07 11:03:05;;;;;;;3.00;2.70;;;11.10;91.40;;;;;;5075678;28;20185;-59
2020/12/07 11:05:32;;;;;;;4.63;3.40;;;10.70;92.60;;;;;;5069904;28;20577;-59
2020/12/07 11:07:59;;;;;;;3.20;3.00;;;10.20;93.60;;;;;;5058935;28;20522;-59
2020/12/07 11:10:25;;;;;;;3.30;3.00;;;10.00;94.20;;;;;;5068052;28;20181;-60
2020/12/07 11:12:57;;;;;;;3.50;2.90;;;9.80;96.00;;;;;;5071302;28;20205;-61
2020/12/07 11:15:23;;;;;;;3.28;3.00;;;9.60;96.50;;;;;;5071355;28;20200;-60
2020/12/07 11:17:49;;;;;;;3.60;3.30;;;8.80;96.80;;;;;;5072890;28;20540;-60
2020/12/07 11:20:14;;;;;;;3.30;3.00;;;9.20;97.30;;;;;;5066312;28;20189;-60
2020/12/07 11:22:40;;;;;;;3.73;3.33;;;8.80;97.10;;;;;;5069747;28;20297;-60
2020/12/07 11:25:06;;;;;;;4.20;3.80;;;9.00;97.50;;;;;;5065564;28;20293;-60
2020/12/07 11:27:31;;;;;;;3.10;2.80;;;8.80;97.90;;;;;;5066977;28;20246;-63
2020/12/07 11:29:57;;;;;;;3.50;3.20;;;9.00;97.40;;;;;;5067036;28;20561;-59
2020/12/07 11:32:22;;;;;;;3.17;2.97;;;8.40;96.90;;;;;;5067891;28;20200;-61
2020/12/07 11:34:48;;;;;;;4.20;3.57;;;8.90;97.80;;;;;;5070970;28;20568;-60
2020/12/07 11:37:13;;;;;;;3.00;2.77;;;8.50;98.80;;;;;;5075132;28;20184;-61
2020/12/07 11:42:24;;;;;;;3.40;3.10;;;8.20;99.40;;;;;;5068445;28;20189;-59
2020/12/07 11:44:50;;;;;;;3.58;3.20;;;8.40;99.00;;;;;;5068808;28;20206;-60
2020/12/07 11:47:15;;;;;;;3.70;3.40;;;8.40;99.10;;;;;;5067779;28;20280;-60
2020/12/07 11:49:42;;;;;;;3.33;3.00;;;8.10;99.10;;;;;;5068043;28;20227;-60
2020/12/07 11:52:07;;;;;;;3.88;3.45;;;8.30;99.20;;;;;;5068311;28;20208;-61
2020/12/07 11:54:35;;;;;;;3.20;2.90;;;8.20;98.90;;;;;;5070663;28;20200;-59
2020/12/07 11:57:05;;;;;;;3.50;3.10;;;8.30;98.70;;;;;;5085233;28;20683;-59
2020/12/07 11:59:31;;;;;;;3.20;2.90;;;8.20;98.40;;;;;;5067806;28;20182;-57
2020/12/07 12:01:56;;;;;;;3.83;3.53;;;8.10;98.20;;;;;;5071705;28;20538;-57
2020/12/07 12:04:22;;;;;;;2.60;2.30;;;7.80;98.70;;;;;;5070919;28;20181;-60
2020/12/07 12:06:48;;;;;;;2.70;2.50;;;7.50;98.50;;;;;;5066186;28;20231;-60
2020/12/07 12:09:14;;;;;;;2.50;2.30;;;7.40;98.30;;;;;;5071391;28;20195;-60
2020/12/07 12:11:41;;;;;;;3.85;3.35;;;7.60;98.40;;;;;;5069001;28;20202;-60
2020/12/07 12:14:09;;;;;;;3.13;2.83;;;7.60;98.20;;;;;;5062602;28;20272;-60
2020/12/07 12:16:35;;;;;;;2.75;2.55;;;7.60;98.40;;;;;;5077062;28;20189;-60
2020/12/07 12:19:02;;;;;;;4.25;2.80;;;7.60;98.50;;;;;;5080542;28;20193;-60
2020/12/07 12:21:29;;;;;;;3.30;3.00;;;7.30;99.00;;;;;;5069694;28;20272;-60
2020/12/07 12:23:56;;;;;;;4.00;3.60;;;7.20;99.30;;;;;;5068174;28;20189;-59
2020/12/07 12:26:22;;;;;;;5.63;3.30;;;7.60;99.40;;;;;;5067833;28;20258;-60
2020/12/07 12:28:49;;;;;;;3.20;2.55;;;7.30;99.60;;;;;;5068502;28;20204;-60
2020/12/07 12:31:15;;;;;;;3.83;3.42;;;7.40;99.70;;;;;;5076503;28;20218;-60
2020/12/07 12:33:43;;;;;;;3.40;3.10;;;7.20;99.70;;;;;;5069870;28;20233;-60
2020/12/07 12:36:14;;;;;;;3.50;3.17;;;7.20;99.80;;;;;;5068203;28;20579;-61
2020/12/07 12:38:40;;;;;;;3.65;3.38;;;7.40;99.90;;;;;;5064795;28;20181;-60
2020/12/07 12:41:06;;;;;;;3.50;3.20;;;7.20;99.70;;;;;;5070462;28;20181;-60
2020/12/07 12:43:32;;;;;;;3.80;3.50;;;7.20;99.90;;;;;;5067557;28;20181;-62
2020/12/07 12:45:57;;;;;;;3.90;3.50;;;7.00;99.90;;;;;;5079472;28;20583;-59
2020/12/07 12:48:23;;;;;;;5.00;4.07;;;7.10;99.90;;;;;;5074795;28;20222;-60
2020/12/07 12:50:48;;;;;;;3.90;3.60;;;7.10;99.90;;;;;;5074534;28;20176;-60
2020/12/07 12:53:14;;;;;;;3.70;3.27;;;7.30;99.90;;;;;;5071903;28;20222;-60
2020/12/07 12:55:40;;;;;;;4.30;3.87;;;7.10;99.90;;;;;;5067097;28;20948;-59
2020/12/07 12:58:05;;;;;;;3.20;2.90;;;7.20;99.90;;;;;;5076077;28;20271;-59
2020/12/07 13:00:31;;;;;;;3.50;3.20;;;7.20;99.90;;;;;;5069439;28;20196;-58
2020/12/07 13:02:58;;;;;;;4.13;3.35;;;7.30;99.90;;;;;;5075322;28;20188;-59
2020/12/07 13:05:23;;;;;;;3.70;3.38;;;7.10;99.90;;;;;;5066157;28;20232;-58
2020/12/07 13:07:49;;;;;;;3.53;2.93;;;6.50;99.80;;;;;;5075712;28;20215;-58
2020/12/07 13:10:15;;;;;;;3.80;2.70;;;7.20;99.90;;;;;;5075096;28;20188;-59
2020/12/07 13:12:40;;;;;;;3.13;2.93;;;7.00;99.90;;;;;;5069834;28;20207;-58
2020/12/07 13:15:06;;;;;;;3.13;2.90;;;7.00;99.90;;;;;;5066572;28;20271;-59
2020/12/07 13:17:36;;;;;;;4.13;3.50;;;6.40;99.60;;;;;;5064975;28;20210;-58
2020/12/07 13:20:05;;;;;;;3.90;3.45;;;6.90;99.90;;;;;;5066712;28;20200;-59
2020/12/07 13:22:42;;;;;;;3.17;2.88;;;7.10;99.90;;;;;;5066979;28;20189;-59
2020/12/07 13:25:11;;;;;;;4.15;3.72;;;6.90;99.90;;;;;;5067494;28;20722;-60
2020/12/07 13:27:48;;;;;;;5.50;3.22;;;7.00;99.90;;;;;;5065587;28;20185;-59
2020/12/07 13:30:15;;;;;;;3.78;3.47;;;6.70;99.90;;;;;;5067910;28;20292;-59
2020/12/07 13:32:41;;;;;;;3.92;3.63;;;6.80;99.90;;;;;;5078954;28;20214;-58
2020/12/07 13:35:07;;;;;;;4.63;4.00;;;7.00;99.90;;;;;;5062763;28;20207;-62